Time;durP1;ratioP1;P1;durP2;ratioP2;P2;SDS_P1;SDS_P2;PMS_P1;PMS_P2;Temp;Humidity;BMP_temperature;BMP_pressure;BME280_temperature;BME280_humidity;BME280_pressure;Samples;Min_cycle;Max_cycle;Signal;HPM_P1;HPM_P2
2022/03/18 00:00:57;;;;;;;13.00;3.97;;;3.70;99.90;;;;;;5023924;28;20080;-70
2022/03/18 00:03:22;;;;;;;12.10;3.75;;;3.70;99.90;;;;;;5040773;28;20042;-70
2022/03/18 00:05:48;;;;;;;14.32;2.85;;;3.70;99.90;;;;;;5044140;28;20053;-71
2022/03/18 00:08:16;;;;;;;11.02;3.55;;;3.60;99.90;;;;;;5042688;28;20030;-70
2022/03/18 00:10:44;;;;;;;9.45;3.13;;;3.60;99.90;;;;;;5027388;28;20022;-73
2022/03/18 00:13:11;;;;;;;10.70;4.47;;;3.50;99.90;;;;;;5041077;28;20029;-70
2022/03/18 00:15:37;;;;;;;19.52;4.47;;;3.50;99.90;;;;;;5024038;28;20028;-69
2022/03/18 00:18:02;;;;;;;15.43;3.88;;;3.50;99.90;;;;;;5023378;28;20049;-70
2022/03/18 00:20:28;;;;;;;10.98;3.55;;;3.40;99.90;;;;;;5024126;28;20033;-71
2022/03/18 00:22:54;;;;;;;13.18;4.13;;;3.30;99.90;;;;;;5024435;28;20367;-70
2022/03/18 00:25:20;;;;;;;15.65;3.10;;;3.20;99.90;;;;;;5024075;28;20065;-70
2022/03/18 00:27:54;;;;;;;7.68;3.53;;;3.20;99.90;;;;;;5032480;28;20022;-71
2022/03/18 00:30:19;;;;;;;18.50;4.20;;;3.10;99.90;;;;;;5023995;28;20116;-72
2022/03/18 00:32:48;;;;;;;7.50;3.72;;;3.10;99.90;;;;;;5024271;28;20030;-69
2022/03/18 00:35:14;;;;;;;9.43;3.88;;;3.00;99.90;;;;;;5024156;28;20022;-72
2022/03/18 00:37:40;;;;;;;16.17;3.72;;;3.00;99.90;;;;;;5024208;28;20044;-70
2022/03/18 00:40:08;;;;;;;6.13;3.17;;;2.90;99.90;;;;;;5024393;28;20060;-70
2022/03/18 00:42:33;;;;;;;12.07;4.38;;;2.90;99.90;;;;;;5023835;28;20022;-69
2022/03/18 00:45:00;;;;;;;8.18;3.00;;;2.90;99.90;;;;;;5023795;28;20037;-70
2022/03/18 00:52:55;;;;;;;8.68;3.45;;;2.90;99.90;;;;;;5024233;28;20084;-71
2022/03/18 00:55:21;;;;;;;9.02;3.28;;;2.90;99.90;;;;;;5023699;28;20038;-69
2022/03/18 00:57:48;;;;;;;13.75;3.70;;;2.90;99.90;;;;;;5023997;28;20048;-70
2022/03/18 01:00:14;;;;;;;6.95;3.15;;;2.90;99.90;;;;;;5023580;28;20525;-72
2022/03/18 01:02:40;;;;;;;10.70;3.63;;;2.90;99.90;;;;;;5024723;28;20029;-73
2022/03/18 01:05:07;;;;;;;8.60;3.70;;;2.90;99.90;;;;;;5034605;28;20417;-73
2022/03/18 01:07:32;;;;;;;13.73;4.40;;;2.80;99.90;;;;;;5046040;28;20029;-70
2022/03/18 01:09:58;;;;;;;8.45;3.80;;;2.80;99.90;;;;;;5047178;28;20037;-72
2022/03/18 01:12:25;;;;;;;15.52;3.78;;;2.80;99.90;;;;;;5047424;28;20033;-69
2022/03/18 01:14:51;;;;;;;20.08;3.40;;;2.80;99.90;;;;;;5045756;28;20034;-70
2022/03/18 01:17:17;;;;;;;6.15;3.35;;;2.90;99.90;;;;;;5046786;28;20073;-72
2022/03/18 01:19:44;;;;;;;11.63;3.45;;;2.80;99.90;;;;;;5047836;28;20052;-72
2022/03/18 01:22:10;;;;;;;7.78;3.25;;;2.80;99.90;;;;;;5046955;28;20108;-74
2022/03/18 01:24:41;;;;;;;7.53;3.30;;;2.90;99.90;;;;;;5036616;28;20033;-72
2022/03/18 01:27:07;;;;;;;6.68;3.00;;;2.90;99.90;;;;;;5037724;28;20029;-70
2022/03/18 01:29:34;;;;;;;11.35;4.30;;;2.90;99.90;;;;;;5027787;28;20022;-71
2022/03/18 01:32:00;;;;;;;6.90;3.10;;;2.90;99.90;;;;;;5027128;28;20033;-73
2022/03/18 01:34:26;;;;;;;5.72;3.33;;;2.80;99.90;;;;;;5027097;28;20070;-72
2022/03/18 01:36:51;;;;;;;9.43;3.67;;;2.80;99.90;;;;;;5026818;28;20124;-70
2022/03/18 01:39:18;;;;;;;23.30;4.75;;;2.70;99.90;;;;;;5026720;28;20033;-72
2022/03/18 01:41:52;;;;;;;6.60;3.35;;;2.70;99.90;;;;;;5025899;28;20474;-71
2022/03/18 01:44:18;;;;;;;;;;;2.60;99.90;;;;;;5026886;28;20052;-72
2022/03/18 01:46:45;;;;;;;10.77;4.05;;;2.50;99.90;;;;;;5025244;28;19905;-73
2022/03/18 01:49:12;;;;;;;8.07;3.45;;;2.50;99.90;;;;;;5035352;28;20026;-71
2022/03/18 01:51:40;;;;;;;8.50;3.53;;;2.50;99.90;;;;;;5026594;28;20137;-73
2022/03/18 01:56:51;;;;;;;7.32;2.78;;;2.40;99.90;;;;;;5026637;28;20508;-71
2022/03/18 01:59:16;;;;;;;7.53;3.83;;;2.40;99.90;;;;;;5026493;28;20386;-72
2022/03/18 02:01:44;;;;;;;6.07;3.28;;;2.40;99.90;;;;;;5026533;28;20022;-71
2022/03/18 02:04:10;;;;;;;8.30;3.08;;;2.40;99.90;;;;;;5026800;28;20073;-72
2022/03/18 02:06:36;;;;;;;5.90;2.65;;;2.40;99.90;;;;;;5026356;28;20038;-73
2022/03/18 02:09:01;;;;;;;9.05;3.67;;;2.40;99.90;;;;;;5026606;28;20045;-72
2022/03/18 02:11:27;;;;;;;9.23;3.33;;;2.40;99.90;;;;;;5026523;28;20467;-72
2022/03/18 02:13:59;;;;;;;13.73;3.63;;;2.50;99.90;;;;;;5026268;28;20034;-70
2022/03/18 02:16:24;;;;;;;7.72;3.35;;;2.50;99.90;;;;;;5026230;28;20050;-70
2022/03/18 02:18:50;;;;;;;7.80;3.05;;;2.60;99.90;;;;;;5026413;28;20470;-70
2022/03/18 02:21:16;;;;;;;9.70;3.53;;;2.60;99.90;;;;;;5025677;28;20026;-71
2022/03/18 02:23:43;;;;;;;21.83;4.40;;;2.60;99.90;;;;;;5031443;28;20033;-71
2022/03/18 02:26:15;;;;;;;14.25;4.47;;;2.70;99.90;;;;;;5033850;28;20116;-72
2022/03/18 02:28:42;;;;;;;7.97;3.65;;;2.70;99.90;;;;;;5026509;28;20088;-71
2022/03/18 02:31:07;;;;;;;9.20;3.58;;;2.60;99.90;;;;;;5026533;28;20056;-71
2022/03/18 02:33:33;;;;;;;17.55;4.38;;;2.60;99.90;;;;;;5025068;28;20081;-70
2022/03/18 02:35:58;;;;;;;9.30;3.15;;;2.60;99.90;;;;;;5025752;28;20052;-70
2022/03/18 02:38:24;;;;;;;17.77;4.20;;;2.60;99.90;;;;;;5025891;28;20467;-73
2022/03/18 02:41:11;;;;;;;7.90;3.60;;;2.50;99.90;;;;;;5025669;28;20038;-70
2022/03/18 02:43:37;;;;;;;7.03;2.88;;;2.50;99.90;;;;;;5037199;28;20026;-72
2022/03/18 02:46:03;;;;;;;11.50;3.47;;;2.40;99.90;;;;;;5045285;28;20026;-70
2022/03/18 02:48:28;;;;;;;9.10;3.70;;;2.40;99.90;;;;;;5043943;28;20092;-71
2022/03/18 02:50:54;;;;;;;5.43;3.03;;;2.40;99.90;;;;;;5045802;28;20030;-73
2022/03/18 02:53:19;;;;;;;12.20;3.72;;;2.40;99.90;;;;;;5045424;28;20029;-70
2022/03/18 02:55:45;;;;;;;12.55;3.33;;;2.30;99.90;;;;;;5045236;28;20081;-71
2022/03/18 02:58:11;;;;;;;7.03;2.83;;;2.20;99.90;;;;;;5044349;28;20033;-72
2022/03/18 03:00:37;;;;;;;18.25;3.75;;;2.20;99.90;;;;;;5045195;28;20038;-73
2022/03/18 03:03:02;;;;;;;7.35;3.65;;;2.10;99.90;;;;;;5045069;28;20030;-69
2022/03/18 03:08:12;;;;;;;5.43;3.20;;;2.10;99.90;;;;;;5025564;28;20076;-72
2022/03/18 03:10:38;;;;;;;8.63;3.50;;;2.00;99.90;;;;;;5024157;28;20056;-72
2022/03/18 03:13:10;;;;;;;10.10;3.28;;;2.00;99.90;;;;;;5025430;28;20030;-69
2022/03/18 03:15:39;;;;;;;5.50;3.00;;;2.00;99.90;;;;;;5024829;28;20420;-70
2022/03/18 03:18:08;;;;;;;7.50;2.95;;;2.00;99.90;;;;;;5025303;28;20058;-69
2022/03/18 03:20:34;;;;;;;7.38;3.17;;;2.00;99.90;;;;;;5025378;28;20801;-69
2022/03/18 03:22:59;;;;;;;8.60;3.15;;;1.90;99.90;;;;;;5034326;28;20140;-70
2022/03/18 03:25:25;;;;;;;12.38;3.30;;;1.80;99.90;;;;;;5044490;28;20048;-70
2022/03/18 03:28:01;;;;;;;14.63;3.17;;;1.80;99.90;;;;;;5044672;28;20029;-70
2022/03/18 03:30:26;;;;;;;5.47;3.03;;;1.80;99.90;;;;;;5044306;28;20028;-72
2022/03/18 03:32:52;;;;;;;6.57;3.58;;;1.80;99.90;;;;;;5044712;28;20084;-69
2022/03/18 03:35:18;;;;;;;11.80;3.00;;;1.70;99.90;;;;;;5044450;28;20030;-71
2022/03/18 03:37:45;;;;;;;6.68;3.13;;;1.70;99.90;;;;;;5044638;28;20045;-70
2022/03/18 03:40:13;;;;;;;4.40;3.00;;;1.70;99.90;;;;;;5043622;28;20030;-72
2022/03/18 03:42:41;;;;;;;11.68;3.38;;;1.60;99.90;;;;;;5043660;28;20485;-71
2022/03/18 03:45:10;;;;;;;8.77;2.92;;;1.60;99.90;;;;;;5040512;28;20033;-71
2022/03/18 03:47:40;;;;;;;14.43;3.53;;;1.60;99.90;;;;;;5025116;28;20505;-71
2022/03/18 03:50:09;;;;;;;8.43;3.45;;;1.60;99.90;;;;;;5024974;28;20034;-72
2022/03/18 03:52:36;;;;;;;6.18;2.63;;;1.60;99.90;;;;;;5023501;28;20117;-70
2022/03/18 03:55:03;;;;;;;18.02;4.07;;;1.70;99.90;;;;;;5024706;28;20038;-73
2022/03/18 03:57:30;;;;;;;9.70;3.63;;;1.70;99.90;;;;;;5036083;28;20029;-69
2022/03/18 03:59:57;;;;;;;6.20;3.08;;;1.70;99.90;;;;;;5044237;28;20473;-70
2022/03/18 04:02:23;;;;;;;15.88;3.15;;;1.70;99.90;;;;;;5044491;28;20077;-72
2022/03/18 04:04:49;;;;;;;8.05;3.42;;;1.70;99.90;;;;;;5044064;28;20072;-70
2022/03/18 04:07:18;;;;;;;8.25;3.08;;;1.80;99.90;;;;;;5044349;28;20029;-70
2022/03/18 04:09:47;;;;;;;9.50;3.40;;;1.80;99.90;;;;;;5044575;28;20056;-70
2022/03/18 04:12:13;;;;;;;11.98;4.13;;;1.70;99.90;;;;;;5044288;28;20076;-72
2022/03/18 04:14:42;;;;;;;18.42;3.33;;;1.80;99.90;;;;;;5044234;28;20029;-71
2022/03/18 04:17:08;;;;;;;10.30;3.53;;;1.80;99.90;;;;;;5044089;28;20060;-72
2022/03/18 04:19:34;;;;;;;12.85;4.13;;;1.80;99.90;;;;;;5043868;28;20062;-71
2022/03/18 04:21:59;;;;;;;16.23;4.32;;;1.80;99.90;;;;;;5040826;28;20025;-70
2022/03/18 04:24:25;;;;;;;8.10;3.15;;;1.80;99.90;;;;;;5024290;28;20030;-69
2022/03/18 04:26:50;;;;;;;6.07;3.42;;;1.80;99.90;;;;;;5037651;28;20026;-71
2022/03/18 04:29:16;;;;;;;6.22;3.47;;;1.80;99.90;;;;;;5044190;28;20036;-73
2022/03/18 04:31:42;;;;;;;19.75;3.58;;;1.70;99.90;;;;;;5044034;28;20036;-71
2022/03/18 04:34:17;;;;;;;12.93;3.75;;;1.70;99.90;;;;;;5044111;28;20049;-72
2022/03/18 04:36:45;;;;;;;8.40;4.03;;;1.60;99.90;;;;;;5044124;28;20073;-70
2022/03/18 04:39:10;;;;;;;10.02;3.85;;;1.60;99.90;;;;;;5033164;28;20022;-70
2022/03/18 04:41:36;;;;;;;25.05;4.55;;;1.60;99.90;;;;;;5028065;28;20041;-72
2022/03/18 04:44:03;;;;;;;9.18;4.50;;;1.60;99.90;;;;;;5027873;28;20033;-71
2022/03/18 04:46:32;;;;;;;15.00;4.65;;;1.60;99.90;;;;;;5028084;28;21094;-70
2022/03/18 04:48:59;;;;;;;12.20;5.57;;;1.60;99.90;;;;;;5033053;28;20025;-71
2022/03/18 04:51:25;;;;;;;9.25;3.88;;;1.50;99.90;;;;;;5047056;28;20059;-71
2022/03/18 04:53:50;;;;;;;17.95;4.53;;;1.50;99.90;;;;;;5048167;28;20026;-71
2022/03/18 04:59:09;;;;;;;13.32;5.05;;;1.50;99.90;;;;;;5046851;28;20035;-70
2022/03/18 05:01:35;;;;;;;21.75;3.65;;;1.50;99.90;;;;;;5046862;28;20036;-71
2022/03/18 05:04:00;;;;;;;9.00;3.90;;;1.50;99.90;;;;;;5032842;28;20026;-71
2022/03/18 05:06:26;;;;;;;11.75;4.97;;;1.40;99.90;;;;;;5039965;28;20029;-70
2022/03/18 05:08:52;;;;;;;21.45;4.40;;;1.40;99.90;;;;;;5046884;28;20076;-70
2022/03/18 05:11:17;;;;;;;9.18;4.53;;;1.40;99.90;;;;;;5047621;28;20029;-72
2022/03/18 05:13:44;;;;;;;17.35;4.10;;;1.50;99.90;;;;;;5047520;28;20085;-72
2022/03/18 05:16:11;;;;;;;9.45;3.63;;;1.50;99.90;;;;;;5046557;28;20068;-73
2022/03/18 05:18:36;;;;;;;12.07;3.75;;;1.60;99.90;;;;;;5047667;28;20025;-70
2022/03/18 05:21:03;;;;;;;8.02;3.60;;;1.60;99.90;;;;;;5046982;28;20070;-71
2022/03/18 05:23:29;;;;;;;21.08;4.45;;;1.60;99.90;;;;;;5047131;28;20029;-70
2022/03/18 05:25:54;;;;;;;12.38;4.47;;;1.70;99.90;;;;;;5045243;28;20029;-72
2022/03/18 05:28:20;;;;;;;11.30;3.75;;;1.70;99.90;;;;;;5033716;28;20053;-72
2022/03/18 05:30:47;;;;;;;12.68;5.00;;;1.70;99.90;;;;;;5035509;28;20036;-71
2022/03/18 05:33:12;;;;;;;7.38;3.83;;;1.70;99.90;;;;;;5027414;28;20034;-72
2022/03/18 05:35:39;;;;;;;8.43;4.25;;;1.80;99.90;;;;;;5027282;28;20030;-71
2022/03/18 05:38:05;;;;;;;9.02;3.22;;;1.80;99.90;;;;;;5027224;28;20659;-70
2022/03/18 05:40:31;;;;;;;11.10;5.03;;;1.80;99.90;;;;;;5027320;28;20034;-71
2022/03/18 05:42:57;;;;;;;10.68;3.70;;;1.70;99.90;;;;;;5025364;28;20057;-69
2022/03/18 05:45:23;;;;;;;15.23;4.60;;;1.70;99.90;;;;;;5026669;28;20030;-70
2022/03/18 05:47:49;;;;;;;16.17;4.53;;;1.70;99.90;;;;;;5026997;28;20459;-71
2022/03/18 05:50:16;;;;;;;8.40;4.10;;;1.70;99.90;;;;;;5025999;28;20032;-70
2022/03/18 05:52:42;;;;;;;13.32;3.88;;;1.60;99.90;;;;;;5027071;28;20093;-73
2022/03/18 05:55:08;;;;;;;12.27;4.13;;;1.60;99.90;;;;;;5026797;28;20040;-71
2022/03/18 05:57:34;;;;;;;6.53;3.20;;;1.60;99.90;;;;;;5026348;28;20057;-69
2022/03/18 06:00:01;;;;;;;6.32;3.53;;;1.60;99.90;;;;;;5025457;28;20022;-71
2022/03/18 06:02:37;;;;;;;9.02;3.50;;;1.70;99.90;;;;;;5026726;28;20088;-72
2022/03/18 06:05:03;;;;;;;17.83;4.13;;;1.70;99.90;;;;;;5024974;28;20021;-72
2022/03/18 06:07:28;;;;;;;11.82;4.13;;;1.70;99.90;;;;;;5026578;28;20049;-71
2022/03/18 06:12:42;;;;;;;;;;;1.70;99.90;;;;;;5027198;28;20056;-72
2022/03/18 06:15:08;;;;;;;8.82;3.92;;;1.80;99.90;;;;;;5026587;28;19909;-70
2022/03/18 06:17:34;;;;;;;13.70;4.82;;;1.80;99.90;;;;;;5026033;28;20058;-69
2022/03/18 06:20:00;;;;;;;7.22;3.63;;;1.80;99.90;;;;;;5025943;28;20040;-71
2022/03/18 06:22:25;;;;;;;21.25;4.85;;;1.80;99.90;;;;;;5026273;28;20054;-71
2022/03/18 06:24:51;;;;;;;7.65;4.28;;;1.80;99.90;;;;;;5025767;28;20034;-70
2022/03/18 06:27:17;;;;;;;9.70;3.38;;;1.90;99.90;;;;;;5026260;28;20030;-71
2022/03/18 06:29:43;;;;;;;14.48;4.82;;;1.90;99.90;;;;;;5024728;28;20041;-70
2022/03/18 06:32:13;;;;;;;8.38;3.58;;;1.90;99.90;;;;;;5026512;28;20030;-71
2022/03/18 06:34:39;;;;;;;12.48;4.53;;;1.90;99.90;;;;;;5037873;28;20044;-73
2022/03/18 06:37:04;;;;;;;16.05;4.57;;;1.90;99.90;;;;;;5036522;28;20037;-70
2022/03/18 06:39:31;;;;;;;11.05;5.03;;;2.00;99.90;;;;;;5044903;28;20051;-71
2022/03/18 06:41:57;;;;;;;10.27;4.40;;;2.00;99.90;;;;;;5045886;28;20081;-70
2022/03/18 06:44:22;;;;;;;9.93;4.90;;;2.10;99.90;;;;;;5045622;28;20083;-69
2022/03/18 06:46:49;;;;;;;13.10;4.53;;;2.20;99.90;;;;;;5045007;28;20021;-71
2022/03/18 06:49:17;;;;;;;10.20;4.95;;;2.20;99.90;;;;;;5045914;28;20052;-70
2022/03/18 06:51:43;;;;;;;16.55;5.30;;;2.30;99.90;;;;;;5042583;28;20064;-71
2022/03/18 06:54:12;;;;;;;13.75;4.53;;;2.40;99.90;;;;;;5028471;28;20034;-70
2022/03/18 06:56:38;;;;;;;9.63;5.95;;;2.40;99.90;;;;;;5025397;28;20099;-69
2022/03/18 06:59:04;;;;;;;9.95;4.72;;;2.50;99.90;;;;;;5024928;28;20034;-69
2022/03/18 07:01:30;;;;;;;10.20;4.38;;;2.60;99.90;;;;;;5024106;28;20121;-69
2022/03/18 07:03:56;;;;;;;19.58;5.22;;;2.70;99.90;;;;;;5029283;28;20029;-69
2022/03/18 07:06:21;;;;;;;15.48;4.63;;;2.80;99.90;;;;;;5032916;28;20053;-68
2022/03/18 07:08:47;;;;;;;16.52;5.43;;;2.90;99.90;;;;;;5033204;28;20084;-70
2022/03/18 07:11:13;;;;;;;18.40;4.55;;;3.00;99.90;;;;;;5040763;28;20033;-68
2022/03/18 07:13:43;;;;;;;13.27;5.10;;;3.10;99.90;;;;;;5043984;28;20029;-70
2022/03/18 07:18:55;;;;;;;12.70;4.18;;;3.40;99.90;;;;;;5034173;28;20049;-68
2022/03/18 07:21:21;;;;;;;11.35;4.65;;;3.50;99.90;;;;;;5044274;28;20037;-68
2022/03/18 07:23:47;;;;;;;9.52;4.43;;;3.60;99.90;;;;;;5044959;28;20036;-70
2022/03/18 07:26:13;;;;;;;12.07;4.78;;;3.70;99.90;;;;;;5042666;28;20026;-68
2022/03/18 07:28:43;;;;;;;18.63;4.30;;;3.80;99.90;;;;;;5043672;28;20032;-71
2022/03/18 07:31:23;;;;;;;;;;;;;;;;;;;;;
2022/03/18 07:33:51;;;;;;;10.70;4.68;;;4.00;99.90;;;;;;5043639;28;20117;-68
2022/03/18 07:36:17;;;;;;;24.08;4.93;;;4.20;99.90;;;;;;5040824;28;20034;-70
2022/03/18 07:38:44;;;;;;;9.02;4.10;;;4.30;99.90;;;;;;5035914;28;20073;-69
2022/03/18 07:41:11;;;;;;;7.72;4.40;;;4.50;99.90;;;;;;5034077;28;20026;-71
2022/03/18 07:43:38;;;;;;;10.00;4.30;;;4.60;99.90;;;;;;5037718;28;20056;-69
2022/03/18 07:46:04;;;;;;;16.42;5.65;;;4.60;99.90;;;;;;5043851;28;20033;-70
2022/03/18 07:48:29;;;;;;;12.50;5.85;;;4.80;99.90;;;;;;5042881;28;20438;-69
2022/03/18 07:50:55;;;;;;;17.92;5.38;;;5.00;99.90;;;;;;5039455;28;20700;-69
2022/03/18 07:53:22;;;;;;;18.80;7.07;;;5.10;99.90;;;;;;5026352;28;20033;-72
2022/03/18 07:55:48;;;;;;;13.82;4.20;;;5.30;99.90;;;;;;5033624;28;20041;-70
2022/03/18 07:58:14;;;;;;;17.30;6.32;;;5.60;99.90;;;;;;5043962;28;20216;-70
2022/03/18 08:00:40;;;;;;;18.33;5.30;;;5.90;99.90;;;;;;5043422;28;20158;-71
2022/03/18 08:03:06;;;;;;;13.02;5.22;;;6.20;99.90;;;;;;5038970;28;20032;-69
2022/03/18 08:05:32;;;;;;;16.48;5.63;;;6.40;99.90;;;;;;5030429;28;20048;-69
2022/03/18 08:07:58;;;;;;;10.27;4.93;;;6.80;99.90;;;;;;5034595;28;20037;-69
2022/03/18 08:10:24;;;;;;;18.60;4.50;;;7.10;99.90;;;;;;5028016;28;20029;-71
2022/03/18 08:12:50;;;;;;;10.57;5.00;;;7.30;99.90;;;;;;5042046;28;20030;-69
2022/03/18 08:15:19;;;;;;;8.88;3.78;;;7.60;99.90;;;;;;5036930;28;20026;-70
2022/03/18 08:17:45;;;;;;;11.70;4.03;;;7.80;99.90;;;;;;5039944;28;20054;-70
2022/03/18 08:20:13;;;;;;;15.43;4.47;;;8.00;99.90;;;;;;5036996;28;20486;-70
2022/03/18 08:22:41;;;;;;;16.60;4.45;;;8.10;99.90;;;;;;5023551;28;20053;-72
2022/03/18 08:25:08;;;;;;;10.93;4.25;;;8.30;99.90;;;;;;5032633;28;20045;-70
2022/03/18 08:27:34;;;;;;;14.45;4.25;;;8.40;99.90;;;;;;5038653;28;20445;-71
2022/03/18 08:30:02;;;;;;;14.57;3.88;;;8.50;99.90;;;;;;5039999;28;20036;-70
2022/03/18 08:32:35;;;;;;;5.78;3.65;;;8.50;99.90;;;;;;5042546;28;20033;-70
2022/03/18 08:35:03;;;;;;;7.63;4.38;;;8.50;99.90;;;;;;5042120;28;20036;-69
2022/03/18 08:40:14;;;;;;;10.65;5.13;;;8.60;99.90;;;;;;5044258;28;20037;-70
2022/03/18 08:42:40;;;;;;;8.38;4.15;;;8.80;99.90;;;;;;5043770;28;20064;-70
2022/03/18 08:45:07;;;;;;;10.43;5.38;;;8.90;99.90;;;;;;5043717;28;20040;-68
2022/03/18 08:47:33;;;;;;;16.15;5.07;;;9.00;99.90;;;;;;5043870;28;20033;-71
2022/03/18 08:49:59;;;;;;;11.48;5.20;;;9.10;99.90;;;;;;5043473;28;20549;-70
2022/03/18 08:52:28;;;;;;;9.25;4.82;;;9.20;99.90;;;;;;5041049;28;20037;-71
2022/03/18 08:54:54;;;;;;;18.80;4.18;;;9.40;99.90;;;;;;5026889;28;20026;-69
2022/03/18 08:57:19;;;;;;;8.40;3.70;;;9.70;99.90;;;;;;5023764;28;20062;-69
2022/03/18 08:59:46;;;;;;;12.35;4.53;;;9.90;99.90;;;;;;5023938;28;20026;-71
2022/03/18 09:02:12;;;;;;;19.73;4.40;;;10.10;99.90;;;;;;5024251;28;20076;-72
2022/03/18 09:04:37;;;;;;;10.20;3.83;;;10.40;99.90;;;;;;5023826;28;20037;-71
2022/03/18 09:07:04;;;;;;;9.50;4.28;;;10.50;99.90;;;;;;5036311;28;20040;-70
2022/03/18 09:09:30;;;;;;;10.48;4.20;;;10.70;99.90;;;;;;5036797;28;20038;-69
2022/03/18 09:11:56;;;;;;;18.55;3.80;;;10.80;99.90;;;;;;5032069;28;20041;-69
2022/03/18 09:14:26;;;;;;;18.63;4.90;;;10.90;99.90;;;;;;5028358;28;20034;-71
2022/03/18 09:16:51;;;;;;;11.02;4.22;;;11.00;99.90;;;;;;5039986;28;20049;-69
2022/03/18 09:19:17;;;;;;;8.57;3.58;;;11.00;99.90;;;;;;5039496;28;20052;-70
2022/03/18 09:21:45;;;;;;;11.35;3.00;;;11.00;99.90;;;;;;5035848;28;20029;-71
2022/03/18 09:24:11;;;;;;;10.05;3.15;;;11.00;99.90;;;;;;5037372;28;20397;-70
2022/03/18 09:26:37;;;;;;;9.55;4.15;;;11.10;99.90;;;;;;5037273;28;20041;-69
2022/03/18 09:29:02;;;;;;;12.05;4.60;;;11.10;99.90;;;;;;5026844;28;20025;-69
2022/03/18 09:31:28;;;;;;;11.82;4.80;;;11.20;99.90;;;;;;5044498;28;20033;-69
2022/03/18 09:33:54;;;;;;;22.27;4.47;;;11.20;99.90;;;;;;5045820;28;20048;-69
2022/03/18 09:36:20;;;;;;;12.75;3.85;;;11.20;99.90;;;;;;5045658;28;20033;-72
2022/03/18 09:38:47;;;;;;;7.90;3.80;;;11.40;99.90;;;;;;5039117;28;20038;-69
2022/03/18 09:41:17;;;;;;;7.10;3.63;;;11.50;99.90;;;;;;5041005;28;20069;-71
2022/03/18 09:43:44;;;;;;;9.23;3.80;;;11.50;99.90;;;;;;5040407;28;20045;-70
2022/03/18 09:46:19;;;;;;;7.18;3.60;;;11.60;99.90;;;;;;5036753;28;20033;-70
2022/03/18 09:48:45;;;;;;;10.88;4.78;;;11.70;99.90;;;;;;5041160;28;20386;-68
2022/03/18 09:51:18;;;;;;;18.40;4.05;;;12.00;99.90;;;;;;5040042;28;20081;-70
2022/03/18 09:53:45;;;;;;;8.43;3.13;;;12.20;99.90;;;;;;5034428;28;20045;-71
2022/03/18 09:56:11;;;;;;;9.30;3.83;;;12.50;99.90;;;;;;5040988;28;20397;-72
2022/03/18 09:58:38;;;;;;;17.63;4.22;;;12.70;99.90;;;;;;5037024;28;20033;-70
2022/03/18 10:01:04;;;;;;;8.20;3.25;;;12.90;99.90;;;;;;5044875;28;20029;-68
2022/03/18 10:03:44;;;;;;;10.13;3.60;;;13.10;99.90;;;;;;5040904;28;20026;-72
2022/03/18 10:06:11;;;;;;;10.90;3.58;;;13.30;99.90;;;;;;5026375;28;20018;-70
2022/03/18 10:08:44;;;;;;;13.27;3.88;;;13.50;99.90;;;;;;5026246;28;20037;-70
2022/03/18 10:11:46;;;;;;;9.73;3.47;;;13.80;99.90;;;;;;5037562;28;20028;-71
2022/03/18 10:14:37;;;;;;;7.63;3.33;;;14.00;99.90;;;;;;5026127;28;20041;-72
2022/03/18 10:17:09;;;;;;;20.92;4.70;;;14.00;99.90;;;;;;5041770;28;20160;-69
2022/03/18 10:19:45;;;;;;;15.95;4.38;;;14.10;99.90;;;;;;5029331;28;20037;-69
2022/03/18 10:22:17;;;;;;;10.20;3.70;;;14.30;99.90;;;;;;5041943;28;20044;-69
2022/03/18 10:24:45;;;;;;;8.18;4.18;;;14.40;99.90;;;;;;5042234;28;20120;-70
2022/03/18 10:27:14;;;;;;;9.77;3.60;;;14.50;99.90;;;;;;5028379;28;20041;-69
2022/03/18 10:29:53;;;;;;;8.65;3.45;;;14.60;99.90;;;;;;5026670;28;20021;-68
2022/03/18 10:32:20;;;;;;;12.90;3.78;;;14.80;99.90;;;;;;5036643;28;20466;-69
2022/03/18 10:37:43;;;;;;;13.38;4.22;;;15.10;99.90;;;;;;5030068;28;20044;-70
2022/03/18 10:40:13;;;;;;;13.52;3.97;;;15.10;99.90;;;;;;5045235;28;20040;-69
2022/03/18 10:42:40;;;;;;;14.95;3.70;;;15.30;99.90;;;;;;5038831;28;20033;-70
2022/03/18 10:45:07;;;;;;;15.07;4.28;;;15.50;99.90;;;;;;5036159;28;20063;-68
2022/03/18 10:47:36;;;;;;;10.40;3.28;;;15.60;99.90;;;;;;5032851;28;20026;-68
2022/03/18 10:50:12;;;;;;;15.10;4.20;;;15.70;99.90;;;;;;5025345;28;20033;-67
2022/03/18 10:52:40;;;;;;;18.40;4.57;;;15.70;99.90;;;;;;5037927;28;20061;-71
2022/03/18 10:55:25;;;;;;;9.40;3.97;;;15.80;99.90;;;;;;5043133;28;20029;-71
2022/03/18 10:57:54;;;;;;;14.90;4.13;;;16.00;99.90;;;;;;5044924;28;20037;-68
2022/03/18 11:00:43;;;;;;;8.75;3.90;;;16.20;99.90;;;;;;5045290;28;20033;-68
2022/03/18 11:03:11;;;;;;;8.75;3.30;;;16.40;99.90;;;;;;5043471;28;20417;-70
2022/03/18 11:05:45;;;;;;;7.57;3.53;;;16.60;99.90;;;;;;5032187;28;20057;-68
2022/03/18 11:08:24;;;;;;;19.88;4.80;;;16.70;99.90;;;;;;5027796;28;20057;-70
2022/03/18 11:11:11;;;;;;;7.80;3.47;;;16.80;99.90;;;;;;5029824;28;20088;-68
2022/03/18 11:14:04;;;;;;;12.15;4.03;;;17.00;99.90;;;;;;5027642;28;20107;-68
2022/03/18 11:16:34;;;;;;;14.32;4.35;;;17.00;99.90;;;;;;5023103;28;20532;-68
2022/03/18 11:19:10;;;;;;;9.27;3.53;;;17.00;99.90;;;;;;5027114;28;20480;-68
2022/03/18 11:21:38;;;;;;;11.40;3.25;;;17.20;99.90;;;;;;5029197;28;20805;-68
2022/03/18 11:24:07;;;;;;;10.30;4.07;;;17.30;99.90;;;;;;5035827;28;20029;-69
2022/03/18 11:26:34;;;;;;;6.88;3.28;;;17.50;99.90;;;;;;5035270;28;20072;-70
2022/03/18 11:29:13;;;;;;;8.45;3.83;;;17.60;99.90;;;;;;5027552;28;20085;-68
2022/03/18 11:31:41;;;;;;;8.30;3.75;;;17.90;99.90;;;;;;5035864;28;20392;-69
2022/03/18 11:34:13;;;;;;;15.10;3.55;;;18.00;99.90;;;;;;5036107;28;20033;-68
2022/03/18 11:36:46;;;;;;;11.75;4.05;;;18.10;99.90;;;;;;5040998;28;20042;-69
2022/03/18 11:39:20;;;;;;;13.52;3.58;;;18.40;99.90;;;;;;5038316;28;20072;-70
2022/03/18 11:41:46;;;;;;;11.18;3.53;;;18.60;99.90;;;;;;5033452;28;20049;-70
2022/03/18 11:44:36;;;;;;;9.82;3.83;;;18.80;99.90;;;;;;5035524;28;20041;-68
2022/03/18 11:47:20;;;;;;;15.52;3.85;;;18.90;99.90;;;;;;5038909;28;20040;-69
2022/03/18 11:49:48;;;;;;;18.27;3.67;;;19.10;99.90;;;;;;5024268;28;20034;-72
2022/03/18 11:52:15;;;;;;;9.68;3.42;;;19.20;99.90;;;;;;5022190;28;20049;-69
2022/03/18 11:54:49;;;;;;;10.52;3.60;;;19.10;99.90;;;;;;5025341;28;20069;-70
2022/03/18 11:57:45;;;;;;;10.98;3.63;;;19.10;99.90;;;;;;5022536;28;20037;-70
2022/03/18 12:00:35;;;;;;;10.50;3.58;;;19.30;99.90;;;;;;5030471;28;20101;-69
2022/03/18 12:03:01;;;;;;;13.13;4.18;;;19.70;99.90;;;;;;5031771;28;20708;-70
2022/03/18 12:05:32;;;;;;;10.38;3.10;;;19.80;99.90;;;;;;5027036;28;20053;-68
2022/03/18 12:07:59;;;;;;;7.20;3.15;;;19.90;99.90;;;;;;5030397;28;20083;-69
2022/03/18 12:10:39;;;;;;;7.38;3.42;;;20.10;99.90;;;;;;5037144;28;20448;-68
2022/03/18 12:13:18;;;;;;;9.68;4.05;;;20.30;99.90;;;;;;5031045;28;20575;-68
2022/03/18 12:15:45;;;;;;;4.15;2.60;;;20.50;99.90;;;;;;5041057;28;20304;-70
2022/03/18 12:18:26;;;;;;;8.88;3.78;;;20.90;99.90;;;;;;5030931;28;20048;-68
2022/03/18 12:20:52;;;;;;;15.98;4.00;;;21.10;99.90;;;;;;5035731;28;20030;-71
2022/03/18 12:23:18;;;;;;;7.95;3.47;;;21.20;99.90;;;;;;5040852;28;20036;-71
2022/03/18 12:25:44;;;;;;;10.25;2.97;;;21.20;99.90;;;;;;5040188;28;20033;-68
2022/03/18 12:28:10;;;;;;;17.15;4.38;;;21.10;99.90;;;;;;5024350;28;20109;-71
2022/03/18 12:30:37;;;;;;;10.70;3.85;;;21.20;99.90;;;;;;5035144;28;20029;-68
2022/03/18 12:33:05;;;;;;;7.80;3.20;;;21.10;99.90;;;;;;5031533;28;20435;-70
2022/03/18 12:35:36;;;;;;;5.53;3.08;;;21.20;99.90;;;;;;5039225;28;20064;-68
2022/03/18 12:38:09;;;;;;;5.53;2.95;;;21.10;99.90;;;;;;5041855;28;20025;-69
2022/03/18 12:40:40;;;;;;;9.65;4.00;;;21.10;99.90;;;;;;5041768;28;20034;-69
2022/03/18 12:43:07;;;;;;;9.05;2.95;;;20.80;99.90;;;;;;5043173;28;20038;-68
2022/03/18 12:45:42;;;;;;;8.57;2.47;;;20.60;99.90;;;;;;5038835;28;20071;-71
2022/03/18 12:48:19;;;;;;;5.68;2.30;;;20.40;99.90;;;;;;5039375;28;20884;-68
2022/03/18 12:50:57;;;;;;;6.75;2.53;;;20.00;99.90;;;;;;5029973;28;20036;-68
2022/03/18 12:53:30;;;;;;;7.65;2.50;;;20.00;99.90;;;;;;5024425;28;20042;-72
2022/03/18 12:55:58;;;;;;;10.48;2.67;;;19.90;99.90;;;;;;5032593;28;20076;-70
2022/03/18 12:58:27;;;;;;;6.65;2.10;;;19.80;99.90;;;;;;5024978;28;20049;-69
2022/03/18 13:00:56;;;;;;;4.63;2.00;;;19.40;99.90;;;;;;5037578;28;20057;-68
2022/03/18 13:03:31;;;;;;;5.60;2.47;;;19.00;99.90;;;;;;5026420;28;20037;-71
2022/03/18 13:06:27;;;;;;;;;;;18.70;99.90;;;;;;5030130;28;20072;-70
2022/03/18 13:09:07;;;;;;;12.30;2.60;;;18.50;99.90;;;;;;5023542;28;20393;-70
2022/03/18 13:11:35;;;;;;;8.00;2.53;;;18.80;99.90;;;;;;5025901;28;20064;-69
2022/03/18 13:14:01;;;;;;;8.20;2.33;;;18.50;99.90;;;;;;5026338;28;20026;-67
2022/03/18 13:16:37;;;;;;;8.85;2.25;;;18.70;99.90;;;;;;5025784;28;20077;-70
2022/03/18 13:19:03;;;;;;;10.52;2.85;;;19.30;99.90;;;;;;5026654;28;20045;-69
2022/03/18 13:21:38;;;;;;;7.90;2.22;;;19.70;99.90;;;;;;5026596;28;20030;-69